Terminal Aerodrome Forecast
Issued by NWS Twin Cities, MN

Home | Current Version | Previous Version | Text Only | Print | Product List | Glossary Off
Versions: 1 2 3 4 5 6 7 8 9 10 11 12 13 14 15 16 17 18 19 20 21

807
FTUS43 KMPX 180714 AAA
TAFEAU
TAF AMD
KEAU 180714Z 1807/1906 22008KT 3SM BR OVC002
     FM181400 21004KT 2SM BR BKN003
     FM181600 20005KT P6SM SKC
     FM190300 20004KT 2SM BR FEW002=

USA.gov is the U.S. government's official web portal to all federal, state and local government web resources and services.